Time;durP1;ratioP1;P1;durP2;ratioP2;P2;SDS_P1;SDS_P2;PMS_P1;PMS_P2;Temp;Humidity;BMP_temperature;BMP_pressure;BME280_temperature;BME280_humidity;BME280_pressure;Samples;Min_cycle;Max_cycle;Signal;HPM_P1;HPM_P2
2022/06/05 00:01:49;;;;;;;0.00;0.00;;;22.30;87.70;;;;;;4185889;28;20053;-70
2022/06/05 00:04:30;;;;;;;0.00;0.00;;;22.30;87.50;;;;;;4200646;28;20048;-70
2022/06/05 00:07:01;;;;;;;0.00;0.00;;;22.40;87.10;;;;;;4200625;28;20048;-70
2022/06/05 00:09:26;;;;;;;0.00;0.00;;;22.40;87.20;;;;;;4186035;28;20075;-71
2022/06/05 00:12:09;;;;;;;0.00;0.00;;;22.40;87.10;;;;;;4200395;28;20045;-70
2022/06/05 00:14:32;;;;;;;0.00;0.00;;;22.40;87.10;;;;;;4200282;28;20045;-70
2022/06/05 00:16:55;;;;;;;0.00;0.00;;;22.40;87.10;;;;;;4158266;28;20103;-71
2022/06/05 00:19:22;;;;;;;0.00;0.00;;;22.30;87.50;;;;;;4171607;28;20116;-70
2022/06/05 00:21:47;;;;;;;0.00;0.00;;;22.20;87.70;;;;;;4185658;28;20052;-69
2022/06/05 00:24:15;;;;;;;0.00;0.00;;;22.30;87.50;;;;;;4173608;28;20057;-72
2022/06/05 00:26:54;;;;;;;0.00;0.00;;;22.40;87.40;;;;;;4199996;28;20053;-69
2022/06/05 00:29:44;;;;;;;0.00;0.00;;;22.40;87.30;;;;;;4186097;28;20041;-72
2022/06/05 00:32:18;;;;;;;0.00;0.00;;;22.40;87.20;;;;;;4200103;28;20060;-70
2022/06/05 00:34:48;;;;;;;0.00;0.00;;;22.40;87.30;;;;;;4186866;28;20084;-71
2022/06/05 00:37:40;;;;;;;0.00;0.00;;;22.40;87.30;;;;;;4186784;28;20052;-71
2022/06/05 00:40:14;;;;;;;0.00;0.00;;;22.40;87.30;;;;;;4185393;28;20517;-72
2022/06/05 00:42:37;;;;;;;0.00;0.00;;;22.30;87.40;;;;;;4185102;28;20064;-69
2022/06/05 00:45:09;;;;;;;0.00;0.00;;;22.20;87.50;;;;;;4185738;28;20060;-70
2022/06/05 00:47:34;;;;;;;0.00;0.00;;;22.20;87.70;;;;;;4185475;28;20441;-71
2022/06/05 00:50:05;;;;;;;0.00;0.00;;;22.20;87.60;;;;;;4184433;28;20077;-72
2022/06/05 00:52:29;;;;;;;;;;;22.20;87.40;;;;;;4185336;28;20095;-72
2022/06/05 00:55:07;;;;;;;0.00;0.00;;;22.10;87.60;;;;;;4186566;28;19924;-74
2022/06/05 00:57:35;;;;;;;0.00;0.00;;;22.00;87.90;;;;;;4185886;28;20052;-71
2022/06/05 01:00:25;;;;;;;0.00;0.00;;;22.00;87.80;;;;;;4185968;28;20045;-72
2022/06/05 01:03:01;;;;;;;0.00;0.00;;;21.90;87.90;;;;;;4172119;28;20458;-70
2022/06/05 01:05:39;;;;;;;0.00;0.00;;;21.90;88.30;;;;;;4199122;28;20048;-70
2022/06/05 01:08:13;;;;;;;0.00;0.00;;;21.90;88.30;;;;;;4199130;28;20060;-71
2022/06/05 01:11:00;;;;;;;0.00;0.00;;;22.00;88.10;;;;;;4199119;28;20102;-71
2022/06/05 01:13:55;;;;;;;0.00;0.00;;;22.10;88.00;;;;;;4171089;28;20057;-71
2022/06/05 01:16:19;;;;;;;0.00;0.00;;;22.10;87.80;;;;;;4184415;28;20056;-70
2022/06/05 01:18:56;;;;;;;0.00;0.00;;;22.10;87.80;;;;;;4199047;28;20072;-70
2022/06/05 01:21:52;;;;;;;0.00;0.00;;;22.00;88.20;;;;;;4198359;28;20056;-74
2022/06/05 01:24:43;;;;;;;0.00;0.00;;;22.00;88.40;;;;;;4199165;28;20116;-71
2022/06/05 01:27:21;;;;;;;0.00;0.00;;;22.00;88.30;;;;;;4159460;28;20103;-70
2022/06/05 01:29:50;;;;;;;0.00;0.00;;;22.00;88.30;;;;;;4170406;28;20037;-70
2022/06/05 01:32:40;;;;;;;0.00;0.00;;;21.90;88.40;;;;;;4184252;28;20099;-69
2022/06/05 01:35:35;;;;;;;0.00;0.00;;;21.90;88.40;;;;;;4168127;28;20053;-71
2022/06/05 01:38:09;;;;;;;0.00;0.00;;;21.90;88.50;;;;;;4153841;28;20049;-70
2022/06/05 01:40:45;;;;;;;0.00;0.00;;;21.90;88.40;;;;;;4154758;28;20041;-70
2022/06/05 01:43:18;;;;;;;0.00;0.00;;;21.90;88.60;;;;;;4181833;28;20423;-71
2022/06/05 01:45:53;;;;;;;0.00;0.00;;;21.70;88.80;;;;;;4168155;28;20379;-69
2022/06/05 01:48:49;;;;;;;0.00;0.00;;;21.70;89.10;;;;;;4153963;28;20074;-71
2022/06/05 01:51:23;;;;;;;0.00;0.00;;;21.70;88.90;;;;;;4148100;28;20124;-70
2022/06/05 01:53:49;;;;;;;0.00;0.00;;;21.70;88.80;;;;;;4161287;28;20045;-72
2022/06/05 01:56:27;;;;;;;0.00;0.00;;;21.80;88.70;;;;;;4154129;28;20463;-69
2022/06/05 01:59:01;;;;;;;0.00;0.00;;;21.80;88.70;;;;;;4167911;28;20037;-73
2022/06/05 02:01:24;;;;;;;;;;;21.70;88.70;;;;;;4167204;28;20530;-70
2022/06/05 02:03:56;;;;;;;0.00;0.00;;;21.70;88.60;;;;;;4167230;28;19959;-70
2022/06/05 02:06:37;;;;;;;0.00;0.00;;;21.80;88.70;;;;;;4167741;28;20530;-69
2022/06/05 02:09:06;;;;;;;0.00;0.00;;;21.80;88.60;;;;;;4167583;28;20049;-72
2022/06/05 02:11:33;;;;;;;0.00;0.00;;;21.80;88.50;;;;;;4167753;28;20045;-72
2022/06/05 02:14:04;;;;;;;0.00;0.00;;;21.80;88.50;;;;;;4167211;28;20053;-71
2022/06/05 02:16:29;;;;;;;;;;;21.80;88.70;;;;;;4155804;28;20452;-74
2022/06/05 02:18:56;;;;;;;0.00;0.00;;;21.70;88.60;;;;;;4151058;28;19921;-70
2022/06/05 02:21:19;;;;;;;0.00;0.00;;;21.60;89.20;;;;;;4151017;28;20100;-69
2022/06/05 02:23:41;;;;;;;0.00;0.00;;;21.50;89.30;;;;;;4150955;28;20053;-70
2022/06/05 02:26:06;;;;;;;0.00;0.00;;;21.50;89.40;;;;;;4150953;28;20085;-72
2022/06/05 02:28:30;;;;;;;0.00;0.00;;;21.50;89.40;;;;;;4151109;28;20066;-70
2022/06/05 02:31:14;;;;;;;0.00;0.00;;;21.50;89.60;;;;;;4164801;28;20053;-69
2022/06/05 02:33:50;;;;;;;0.00;0.00;;;21.50;89.80;;;;;;4143544;28;20453;-72
2022/06/05 02:36:25;;;;;;;0.00;0.00;;;21.60;89.90;;;;;;4167144;28;20169;-72
2022/06/05 02:39:33;;;;;;;0.00;0.00;;;21.50;89.90;;;;;;4167259;28;20084;-70
2022/06/05 02:42:07;;;;;;;0.00;0.00;;;21.50;90.10;;;;;;4167216;28;20049;-71
2022/06/05 02:44:52;;;;;;;0.00;0.00;;;21.40;90.40;;;;;;4153314;28;20359;-72
2022/06/05 02:47:26;;;;;;;0.00;0.00;;;21.30;90.60;;;;;;4167423;28;20049;-70
2022/06/05 02:49:55;;;;;;;0.00;0.00;;;21.30;90.60;;;;;;4167153;28;20041;-73
2022/06/05 02:52:21;;;;;;;0.00;0.00;;;21.30;90.50;;;;;;4153338;28;20350;-70
2022/06/05 02:54:51;;;;;;;0.00;0.00;;;21.30;90.60;;;;;;4153842;28;20052;-69
2022/06/05 02:57:15;;;;;;;0.00;0.00;;;21.30;90.60;;;;;;4167302;28;20069;-70
2022/06/05 02:59:37;;;;;;;0.00;0.00;;;21.20;90.70;;;;;;4153515;28;20061;-71
2022/06/05 03:04:42;;;;;;;0.00;0.00;;;21.10;90.80;;;;;;4167075;28;20053;-71
2022/06/05 03:07:05;;;;;;;0.00;0.00;;;21.10;90.80;;;;;;4167204;28;20103;-70
2022/06/05 03:09:27;;;;;;;0.00;0.00;;;21.10;90.80;;;;;;4153374;28;20042;-70
2022/06/05 03:11:51;;;;;;;0.00;0.00;;;21.10;91.00;;;;;;4167164;28;20053;-72
2022/06/05 03:14:13;;;;;;;0.00;0.00;;;21.10;91.20;;;;;;4170212;28;20538;-69
2022/06/05 03:16:38;;;;;;;0.00;0.00;;;21.10;91.30;;;;;;4170418;28;20053;-70
2022/06/05 03:19:03;;;;;;;0.00;0.00;;;21.10;91.40;;;;;;4156716;28;20378;-70
2022/06/05 03:21:27;;;;;;;0.00;0.00;;;21.00;91.60;;;;;;4170155;28;20062;-72
2022/06/05 03:23:51;;;;;;;0.00;0.00;;;20.90;91.80;;;;;;4170282;28;20108;-72
2022/06/05 03:26:16;;;;;;;0.00;0.00;;;20.90;91.90;;;;;;4183984;28;20048;-72
2022/06/05 03:28:41;;;;;;;0.00;0.00;;;20.80;92.10;;;;;;4169838;28;20534;-70
2022/06/05 03:31:06;;;;;;;0.00;0.00;;;20.80;92.30;;;;;;4156239;28;20081;-72
2022/06/05 03:33:28;;;;;;;0.00;0.00;;;20.80;92.30;;;;;;4169688;28;20140;-71
2022/06/05 03:35:54;;;;;;;0.00;0.00;;;20.90;92.40;;;;;;4155825;28;20508;-70
2022/06/05 03:38:16;;;;;;;0.00;0.00;;;20.90;92.70;;;;;;4155956;28;20046;-70
2022/06/05 03:40:45;;;;;;;0.00;0.00;;;20.80;93.00;;;;;;4184043;28;20495;-71
2022/06/05 03:43:08;;;;;;;0.00;0.00;;;20.80;93.30;;;;;;4169854;28;20049;-73
2022/06/05 03:45:35;;;;;;;0.00;0.00;;;20.80;93.30;;;;;;4155744;28;20050;-70
2022/06/05 03:47:57;;;;;;;0.00;0.00;;;20.80;93.20;;;;;;4169449;28;20046;-70
2022/06/05 03:50:22;;;;;;;0.00;0.00;;;20.70;93.10;;;;;;4183376;28;20527;-72
2022/06/05 03:52:49;;;;;;;0.00;0.00;;;20.80;93.00;;;;;;4155892;28;20440;-71
2022/06/05 03:55:16;;;;;;;0.00;0.00;;;20.90;92.90;;;;;;4169268;28;20042;-71
2022/06/05 03:57:38;;;;;;;0.00;0.00;;;20.90;92.90;;;;;;4169559;28;20064;-71
2022/06/05 04:00:00;;;;;;;0.00;0.00;;;21.00;92.70;;;;;;4155587;28;20137;-74
2022/06/05 04:02:25;;;;;;;0.00;0.00;;;21.00;92.80;;;;;;4183220;28;20495;-72
2022/06/05 04:04:51;;;;;;;0.00;0.00;;;20.90;93.00;;;;;;4169241;28;20132;-70
2022/06/05 04:07:13;;;;;;;0.00;0.00;;;20.90;93.00;;;;;;4168976;28;20111;-71
2022/06/05 04:09:35;;;;;;;0.00;0.00;;;21.00;92.90;;;;;;4169332;28;20080;-72
2022/06/05 04:12:02;;;;;;;0.00;0.00;;;21.10;93.00;;;;;;4168912;28;20083;-72
2022/06/05 04:14:26;;;;;;;0.00;0.00;;;21.10;92.90;;;;;;4155254;28;20049;-71
2022/06/05 04:16:50;;;;;;;0.00;0.00;;;21.10;92.50;;;;;;4154993;28;20112;-74
2022/06/05 04:19:13;;;;;;;0.00;0.00;;;21.00;92.30;;;;;;4182942;28;20045;-71
2022/06/05 04:21:37;;;;;;;0.00;0.00;;;21.10;92.10;;;;;;4169041;28;20049;-72
2022/06/05 04:23:59;;;;;;;0.00;0.00;;;21.20;91.80;;;;;;4168551;28;20508;-71
2022/06/05 04:26:30;;;;;;;0.00;0.00;;;21.30;91.60;;;;;;4168857;28;20111;-73
2022/06/05 04:28:55;;;;;;;0.00;0.00;;;21.20;91.60;;;;;;4168751;28;20050;-72
2022/06/05 04:31:35;;;;;;;0.00;0.00;;;21.10;91.50;;;;;;4168963;28;20059;-71
2022/06/05 04:34:00;;;;;;;0.00;0.00;;;21.20;91.70;;;;;;4168777;28;20053;-72
2022/06/05 04:36:26;;;;;;;0.00;0.00;;;21.30;91.70;;;;;;4168752;28;20049;-71
2022/06/05 04:38:48;;;;;;;0.00;0.00;;;21.30;91.70;;;;;;4141294;28;20082;-71
2022/06/05 04:41:10;;;;;;;0.00;0.00;;;21.40;91.70;;;;;;4141308;28;20046;-71
2022/06/05 04:43:35;;;;;;;0.00;0.00;;;21.30;91.60;;;;;;4182592;28;20091;-71
2022/06/05 04:45:58;;;;;;;0.00;0.00;;;21.20;91.90;;;;;;4168581;28;20053;-72
2022/06/05 04:48:22;;;;;;;0.00;0.00;;;21.20;92.00;;;;;;4168477;28;20092;-72
2022/06/05 04:50:44;;;;;;;0.00;0.00;;;21.30;91.80;;;;;;4168421;28;20071;-73
2022/06/05 04:53:09;;;;;;;0.00;0.00;;;21.30;91.70;;;;;;4168403;28;20051;-72
2022/06/05 04:55:31;;;;;;;0.00;0.00;;;21.40;91.60;;;;;;4175347;28;20513;-71
2022/06/05 04:57:53;;;;;;;0.00;0.00;;;21.50;91.60;;;;;;4171235;28;20135;-71
2022/06/05 05:00:18;;;;;;;0.00;0.00;;;21.50;91.50;;;;;;4171426;28;20056;-69
2022/06/05 05:02:40;;;;;;;0.00;0.00;;;21.50;91.60;;;;;;4171437;28;20411;-72
2022/06/05 05:05:07;;;;;;;0.00;0.00;;;21.60;91.50;;;;;;4171667;28;20091;-73
2022/06/05 05:07:30;;;;;;;0.00;0.00;;;21.60;91.60;;;;;;4184584;28;20076;-68
2022/06/05 05:09:54;;;;;;;0.00;0.00;;;21.60;91.50;;;;;;4171072;28;20041;-70
2022/06/05 05:12:18;;;;;;;0.00;0.00;;;21.70;91.40;;;;;;4184492;28;20037;-70
2022/06/05 05:14:45;;;;;;;0.00;0.00;;;21.80;91.30;;;;;;4184706;28;20052;-71
2022/06/05 05:17:11;;;;;;;0.00;0.00;;;21.80;91.30;;;;;;4184540;28;20056;-71
2022/06/05 05:19:33;;;;;;;0.00;0.00;;;21.90;91.10;;;;;;4184682;28;20041;-69
2022/06/05 05:22:00;;;;;;;0.00;0.00;;;21.90;91.00;;;;;;4170503;28;20053;-68
2022/06/05 05:24:22;;;;;;;0.00;0.00;;;21.90;90.80;;;;;;4170750;28;20062;-70
2022/06/05 05:26:45;;;;;;;0.00;0.00;;;21.90;90.70;;;;;;4178274;28;20052;-72
2022/06/05 05:29:12;;;;;;;0.00;0.00;;;21.90;90.70;;;;;;4191263;28;20119;-71
2022/06/05 05:31:38;;;;;;;0.00;0.00;;;22.00;90.80;;;;;;4169775;28;20443;-70
2022/06/05 05:34:06;;;;;;;0.00;0.00;;;22.00;90.70;;;;;;4184119;28;20119;-71
2022/06/05 05:36:31;;;;;;;0.00;0.00;;;22.00;90.60;;;;;;4184020;28;20062;-70
2022/06/05 05:44:27;;;;;;;0.00;0.00;;;22.10;90.40;;;;;;4182185;28;20053;-69
2022/06/05 05:46:52;;;;;;;0.00;0.00;;;22.00;90.50;;;;;;4170589;28;20049;-69
2022/06/05 05:49:15;;;;;;;0.00;0.00;;;22.10;90.40;;;;;;4183497;28;20056;-69
2022/06/05 05:51:38;;;;;;;0.00;0.00;;;22.10;90.40;;;;;;4183264;28;20048;-69
2022/06/05 05:54:03;;;;;;;0.00;0.00;;;22.10;90.40;;;;;;4167085;28;20503;-68
2022/06/05 05:56:27;;;;;;;0.00;0.00;;;22.20;90.50;;;;;;4178907;28;20045;-71
2022/06/05 05:58:54;;;;;;;0.00;0.00;;;22.20;90.30;;;;;;4152884;28;20046;-70
2022/06/05 06:01:18;;;;;;;0.00;0.00;;;22.20;90.50;;;;;;4176955;28;20057;-69
2022/06/05 06:03:43;;;;;;;0.00;0.00;;;22.20;90.50;;;;;;4169598;28;20069;-71
2022/06/05 06:06:09;;;;;;;0.00;0.00;;;22.20;90.60;;;;;;4166853;28;20091;-69
2022/06/05 06:08:36;;;;;;;0.00;0.00;;;22.30;90.50;;;;;;4194483;28;20099;-69
2022/06/05 06:11:03;;;;;;;0.00;0.00;;;22.40;90.40;;;;;;4189174;28;20337;-73
2022/06/05 06:13:25;;;;;;;0.00;0.00;;;22.40;90.20;;;;;;4188974;28;20136;-70
2022/06/05 06:15:52;;;;;;;0.00;0.00;;;22.50;90.20;;;;;;4184145;28;20054;-68
2022/06/05 06:18:17;;;;;;;0.00;0.00;;;22.60;90.40;;;;;;4174237;28;20053;-70
2022/06/05 06:20:41;;;;;;;0.00;0.00;;;22.70;89.80;;;;;;4195720;28;20052;-68
2022/06/05 06:23:06;;;;;;;0.00;0.00;;;22.80;89.50;;;;;;4183438;28;20049;-71
2022/06/05 06:25:28;;;;;;;0.00;0.00;;;23.00;88.50;;;;;;4153158;28;20526;-68
2022/06/05 06:27:49;;;;;;;0.00;0.00;;;23.00;88.00;;;;;;4173192;28;20076;-70
2022/06/05 06:30:12;;;;;;;0.00;0.00;;;23.20;87.80;;;;;;4159838;28;20058;-71
2022/06/05 06:32:36;;;;;;;0.00;0.00;;;23.20;87.00;;;;;;4166445;28;20156;-68
2022/06/05 06:35:00;;;;;;;0.00;0.00;;;23.20;87.20;;;;;;4182330;28;20045;-70
2022/06/05 06:37:22;;;;;;;0.00;0.00;;;23.30;87.10;;;;;;4183620;28;20475;-69
2022/06/05 06:39:47;;;;;;;0.00;0.00;;;23.40;87.00;;;;;;4170007;28;20045;-69
2022/06/05 06:42:11;;;;;;;0.00;0.00;;;23.40;86.30;;;;;;4197822;28;20077;-70
2022/06/05 06:44:38;;;;;;;0.00;0.00;;;23.50;87.10;;;;;;4183782;28;20088;-71
2022/06/05 06:47:00;;;;;;;0.00;0.00;;;23.70;86.60;;;;;;4184273;28;20049;-70
2022/06/05 06:49:27;;;;;;;0.00;0.00;;;23.80;85.20;;;;;;4172978;28;20053;-70
2022/06/05 06:51:53;;;;;;;0.00;0.00;;;23.80;84.60;;;;;;4186572;28;20056;-70
2022/06/05 06:54:18;;;;;;;0.00;0.00;;;23.70;84.50;;;;;;4187130;28;20049;-71
2022/06/05 06:56:42;;;;;;;0.00;0.00;;;23.70;85.00;;;;;;4159023;28;20061;-72
2022/06/05 06:59:05;;;;;;;0.00;0.00;;;23.90;83.80;;;;;;4186799;28;20479;-70
2022/06/05 07:01:27;;;;;;;0.00;0.00;;;24.00;83.90;;;;;;4157587;28;20540;-73
2022/06/05 07:03:51;;;;;;;0.00;0.00;;;24.20;83.70;;;;;;4166940;28;20538;-70
2022/06/05 07:06:17;;;;;;;0.00;0.00;;;24.40;83.50;;;;;;4172810;28;20435;-69
2022/06/05 07:08:40;;;;;;;0.00;0.00;;;24.40;81.90;;;;;;4186643;28;20048;-70
2022/06/05 07:11:07;;;;;;;0.00;0.00;;;24.40;82.00;;;;;;4172610;28;20491;-74
2022/06/05 07:13:31;;;;;;;0.00;0.00;;;24.50;82.70;;;;;;4187038;28;20041;-75
2022/06/05 07:15:55;;;;;;;0.00;0.00;;;24.60;82.80;;;;;;4186821;28;20045;-73
2022/06/05 07:18:18;;;;;;;0.00;0.00;;;24.70;82.10;;;;;;4151178;28;20108;-75
2022/06/05 07:20:43;;;;;;;0.00;0.00;;;24.80;81.90;;;;;;4162077;28;20060;-73
2022/06/05 07:23:08;;;;;;;0.00;0.00;;;24.90;81.40;;;;;;4172810;28;20480;-73
2022/06/05 07:25:35;;;;;;;0.00;0.00;;;25.00;80.50;;;;;;4170898;28;20055;-73
2022/06/05 07:28:00;;;;;;;0.00;0.00;;;24.90;80.40;;;;;;4153816;28;20053;-74
2022/06/05 07:30:27;;;;;;;0.00;0.00;;;24.70;80.20;;;;;;4190476;28;20044;-70
2022/06/05 07:32:55;;;;;;;0.00;0.00;;;24.60;80.50;;;;;;4169756;28;20507;-71
2022/06/05 07:35:22;;;;;;;0.00;0.00;;;24.60;80.00;;;;;;4156020;28;20045;-73
2022/06/05 07:37:45;;;;;;;0.00;0.00;;;24.30;81.40;;;;;;4156321;28;20057;-74
2022/06/05 07:40:27;;;;;;;0.00;0.00;;;24.10;82.20;;;;;;4158497;28;20076;-70
2022/06/05 07:42:54;;;;;;;0.00;0.00;;;24.00;82.90;;;;;;4196917;28;20098;-70
2022/06/05 07:45:16;;;;;;;0.00;0.00;;;24.10;83.00;;;;;;4166908;28;20051;-71
2022/06/05 07:47:38;;;;;;;0.00;0.00;;;24.20;82.20;;;;;;4173551;28;20061;-73
2022/06/05 07:50:01;;;;;;;0.00;0.00;;;24.40;81.80;;;;;;4182894;28;20049;-72
2022/06/05 07:55:04;;;;;;;0.00;0.00;;;24.30;82.90;;;;;;4171786;28;20049;-71
2022/06/05 07:57:31;;;;;;;0.00;0.00;;;24.50;82.00;;;;;;4198413;28;20060;-71
2022/06/05 07:59:53;;;;;;;0.00;0.00;;;24.50;81.40;;;;;;4154552;28;20504;-73
2022/06/05 08:02:21;;;;;;;0.00;0.00;;;24.60;80.90;;;;;;4169220;28;20388;-73
2022/06/05 08:04:43;;;;;;;0.00;0.00;;;24.50;82.10;;;;;;4169269;28;20053;-71
2022/06/05 08:07:07;;;;;;;0.00;0.00;;;24.70;82.20;;;;;;4183047;28;20040;-72
2022/06/05 08:09:29;;;;;;;0.00;0.00;;;24.80;80.80;;;;;;4182259;28;20087;-72
2022/06/05 08:11:51;;;;;;;0.00;0.00;;;24.80;79.90;;;;;;4183108;28;20460;-73
2022/06/05 08:14:14;;;;;;;0.00;0.00;;;24.80;80.30;;;;;;4182904;28;20067;-72
2022/06/05 08:16:43;;;;;;;0.00;0.00;;;25.00;79.70;;;;;;4169228;28;20091;-70
2022/06/05 08:19:06;;;;;;;0.00;0.00;;;25.00;79.10;;;;;;4182969;28;20490;-72
2022/06/05 08:21:28;;;;;;;0.00;0.00;;;25.00;79.20;;;;;;4133308;28;20154;-71
2022/06/05 08:23:50;;;;;;;0.00;0.00;;;25.10;79.70;;;;;;4135600;28;20054;-72
2022/06/05 08:26:13;;;;;;;0.00;0.00;;;25.30;79.90;;;;;;4155209;28;20073;-71
2022/06/05 08:28:36;;;;;;;0.00;0.00;;;25.50;79.50;;;;;;4141274;28;20058;-74
2022/06/05 08:30:59;;;;;;;0.00;0.00;;;25.60;79.50;;;;;;4128053;28;20046;-74
2022/06/05 08:33:22;;;;;;;0.00;0.00;;;25.90;78.90;;;;;;4145655;28;20053;-73
2022/06/05 08:35:46;;;;;;;0.00;0.00;;;25.80;76.90;;;;;;4141394;28;20060;-70
2022/06/05 08:41:27;;;;;;;0.00;0.00;;;26.00;76.80;;;;;;4168554;28;20482;-73
2022/06/05 08:43:56;;;;;;;0.00;0.00;;;26.10;76.30;;;;;;4168630;28;20062;-72
2022/06/05 08:46:38;;;;;;;0.00;0.00;;;26.30;76.30;;;;;;4178801;28;20044;-73
2022/06/05 08:49:03;;;;;;;0.00;0.00;;;26.40;75.50;;;;;;4185400;28;20555;-75
2022/06/05 08:51:39;;;;;;;0.00;0.00;;;26.40;74.70;;;;;;4184402;28;20048;-74
2022/06/05 08:54:10;;;;;;;0.00;0.00;;;26.40;74.60;;;;;;4185439;28;20106;-73
2022/06/05 08:56:41;;;;;;;0.00;0.00;;;26.30;75.00;;;;;;4184903;28;20067;-74
2022/06/05 08:59:32;;;;;;;0.00;0.00;;;26.40;74.70;;;;;;4170495;28;20103;-74
2022/06/05 09:01:54;;;;;;;0.00;0.00;;;26.70;76.00;;;;;;4201816;28;20783;-72
2022/06/05 09:04:16;;;;;;;0.00;0.00;;;27.10;75.10;;;;;;4188019;28;20044;-73
2022/06/05 09:06:45;;;;;;;0.00;0.00;;;27.40;73.30;;;;;;4215590;28;20051;-74
2022/06/05 09:09:26;;;;;;;0.00;0.00;;;27.40;71.90;;;;;;4189145;28;20060;-75
2022/06/05 09:11:58;;;;;;;0.00;0.00;;;27.20;71.60;;;;;;4168326;28;20124;-75
2022/06/05 09:14:38;;;;;;;0.00;0.00;;;27.40;71.20;;;;;;4168572;28;20128;-72
2022/06/05 09:17:10;;;;;;;0.00;0.00;;;27.30;71.20;;;;;;4169160;28;20120;-75
2022/06/05 09:19:32;;;;;;;0.00;0.00;;;27.30;70.70;;;;;;4154615;28;20129;-74
2022/06/05 09:22:28;;;;;;;0.00;0.00;;;27.30;71.00;;;;;;4168749;28;20088;-72
2022/06/05 09:24:59;;;;;;;0.00;0.00;;;27.50;70.70;;;;;;4168774;28;20057;-73
2022/06/05 09:27:59;;;;;;;0.00;0.00;;;27.70;69.20;;;;;;4168264;28;20534;-75
2022/06/05 09:30:30;;;;;;;0.00;0.00;;;27.70;69.00;;;;;;4163508;28;20118;-74
2022/06/05 09:33:17;;;;;;;0.00;0.00;;;27.70;68.60;;;;;;4168048;28;20049;-72
2022/06/05 09:35:53;;;;;;;0.00;0.00;;;27.80;67.80;;;;;;4168077;28;20077;-74
2022/06/05 09:38:23;;;;;;;0.00;0.00;;;27.80;68.50;;;;;;4168315;28;20084;-73
2022/06/05 09:41:07;;;;;;;0.00;0.00;;;27.60;68.40;;;;;;4168181;28;20115;-74
2022/06/05 09:43:50;;;;;;;0.00;0.00;;;27.60;69.00;;;;;;4181549;28;20112;-76
2022/06/05 09:46:28;;;;;;;0.00;0.00;;;27.70;70.20;;;;;;4167776;28;20045;-73
2022/06/05 09:49:01;;;;;;;0.00;0.00;;;27.70;70.10;;;;;;4167957;28;20048;-73
2022/06/05 09:51:24;;;;;;;0.00;0.00;;;27.70;70.30;;;;;;4167682;28;20172;-74
2022/06/05 09:53:55;;;;;;;0.00;0.00;;;27.80;70.20;;;;;;4167985;28;20496;-74
2022/06/05 09:59:48;;;;;;;0.00;0.00;;;28.00;69.80;;;;;;4154101;28;20085;-73
2022/06/05 10:02:11;;;;;;;0.00;0.00;;;28.10;70.50;;;;;;4167698;28;20049;-75
2022/06/05 10:04:39;;;;;;;0.00;0.00;;;28.20;70.90;;;;;;4167562;28;20061;-73
2022/06/05 10:07:42;;;;;;;0.00;0.00;;;28.10;71.90;;;;;;4168071;28;20459;-76
2022/06/05 10:10:16;;;;;;;0.00;0.00;;;27.60;72.00;;;;;;4167596;28;20053;-73
2022/06/05 10:12:45;;;;;;;0.00;0.00;;;27.10;72.70;;;;;;4167463;28;20041;-73
2022/06/05 10:15:25;;;;;;;0.00;0.00;;;26.60;72.80;;;;;;4153950;28;20429;-74
2022/06/05 10:17:57;;;;;;;0.00;0.00;;;26.40;72.80;;;;;;4167833;28;20092;-74
2022/06/05 10:20:25;;;;;;;0.00;0.00;;;26.10;72.70;;;;;;4153716;28;20038;-71
2022/06/05 10:23:08;;;;;;;0.00;0.00;;;26.00;71.70;;;;;;4142531;28;20093;-74
2022/06/05 10:25:42;;;;;;;0.00;0.00;;;25.70;69.90;;;;;;4157593;28;20046;-74
2022/06/05 10:28:18;;;;;;;0.00;0.00;;;25.70;69.70;;;;;;4185484;28;20049;-75
2022/06/05 10:31:08;;;;;;;0.00;0.00;;;25.50;69.30;;;;;;4171639;28;20045;-75
2022/06/05 10:33:54;;;;;;;0.00;0.00;;;25.00;69.50;;;;;;4171740;28;20052;-74
2022/06/05 10:36:47;;;;;;;0.00;0.00;;;24.90;69.70;;;;;;4171674;28;20125;-72
2022/06/05 10:39:18;;;;;;;0.00;0.00;;;24.90;69.10;;;;;;4157014;28;20451;-73
2022/06/05 10:41:52;;;;;;;0.00;0.00;;;25.00;69.70;;;;;;4157724;28;20046;-74
2022/06/05 10:45:00;;;;;;;0.00;0.00;;;25.10;69.80;;;;;;4171510;28;20073;-74
2022/06/05 10:47:50;;;;;;;0.00;0.00;;;25.10;69.40;;;;;;4151993;28;20156;-72
2022/06/05 10:50:17;;;;;;;0.00;0.00;;;25.20;69.30;;;;;;4170820;28;20111;-73
2022/06/05 10:53:09;;;;;;;0.00;0.00;;;25.30;69.40;;;;;;4171069;28;20115;-73
2022/06/05 10:55:44;;;;;;;0.00;0.00;;;25.40;69.40;;;;;;4170736;28;20372;-74
2022/06/05 10:58:44;;;;;;;0.00;0.00;;;25.10;69.50;;;;;;4170545;28;20033;-73
2022/06/05 11:01:35;;;;;;;0.00;0.00;;;25.00;70.40;;;;;;4170875;28;20095;-74
2022/06/05 11:04:23;;;;;;;0.00;0.00;;;24.80;71.00;;;;;;4170859;28;20046;-74
2022/06/05 11:06:58;;;;;;;0.00;0.00;;;24.60;71.60;;;;;;4170676;28;20064;-75
2022/06/05 11:09:42;;;;;;;0.00;0.00;;;24.40;73.20;;;;;;4170395;28;20087;-73
2022/06/05 11:15:24;;;;;;;0.00;0.00;;;24.00;73.80;;;;;;4170463;28;20061;-74
2022/06/05 11:18:16;;;;;;;0.00;0.00;;;23.90;76.50;;;;;;4170393;28;20385;-72
2022/06/05 11:20:52;;;;;;;0.00;0.00;;;23.60;82.50;;;;;;4156266;28;20551;-73
2022/06/05 11:23:27;;;;;;;0.00;0.00;;;23.30;84.60;;;;;;4156156;28;20042;-74
2022/06/05 11:26:21;;;;;;;0.00;0.00;;;22.70;86.20;;;;;;4142951;28;20038;-74
2022/06/05 11:29:07;;;;;;;0.00;0.00;;;22.50;86.80;;;;;;4172920;28;20532;-73
2022/06/05 11:31:52;;;;;;;0.00;0.00;;;22.30;87.60;;;;;;4177854;28;20448;-73
2022/06/05 11:34:29;;;;;;;0.00;0.00;;;22.40;87.40;;;;;;4169258;28;20053;-75
2022/06/05 11:37:23;;;;;;;0.00;0.00;;;22.50;90.60;;;;;;4145305;28;20053;-77
2022/06/05 11:39:56;;;;;;;;;;;22.40;90.20;;;;;;4172336;28;20159;-76
2022/06/05 11:42:47;;;;;;;0.00;0.00;;;22.20;90.00;;;;;;4186657;28;19921;-75
2022/06/05 11:45:25;;;;;;;0.00;0.00;;;22.20;90.00;;;;;;4171274;28;20049;-76
2022/06/05 11:48:04;;;;;;;0.00;0.00;;;22.10;90.10;;;;;;4156396;28;20164;-76
2022/06/05 11:50:48;;;;;;;0.00;0.00;;;22.20;90.00;;;;;;4156602;28;20059;-76
2022/06/05 11:53:19;;;;;;;0.00;0.00;;;22.10;90.60;;;;;;4142222;28;20163;-77
2022/06/05 11:55:53;;;;;;;0.00;0.00;;;22.00;90.80;;;;;;4128922;28;20055;-75
2022/06/05 11:58:39;;;;;;;0.00;0.00;;;22.00;90.90;;;;;;4168997;28;20115;-73
2022/06/05 12:01:23;;;;;;;0.00;0.00;;;21.90;90.20;;;;;;4169229;28;20111;-77
2022/06/05 12:03:59;;;;;;;0.00;0.00;;;21.60;90.40;;;;;;4182603;28;20052;-75
2022/06/05 12:06:29;;;;;;;0.00;0.00;;;21.50;90.00;;;;;;4171844;28;20288;-73
2022/06/05 12:08:58;;;;;;;0.00;0.00;;;21.30;90.20;;;;;;4157743;28;20124;-74
2022/06/05 12:11:43;;;;;;;0.00;0.00;;;21.30;90.10;;;;;;4172249;28;20087;-74
2022/06/05 12:14:29;;;;;;;0.00;0.00;;;21.30;90.20;;;;;;4185151;28;20133;-73
2022/06/05 12:17:31;;;;;;;0.00;0.00;;;21.40;90.40;;;;;;4173223;28;20475;-74
2022/06/05 12:20:24;;;;;;;0.00;0.00;;;21.60;90.20;;;;;;4188214;28;20049;-75
2022/06/05 12:23:26;;;;;;;0.00;0.00;;;21.70;90.00;;;;;;4172422;28;20144;-73
2022/06/05 12:25:56;;;;;;;0.00;0.00;;;21.60;89.90;;;;;;4154472;28;20057;-75
2022/06/05 12:28:54;;;;;;;0.00;0.00;;;21.60;90.30;;;;;;4171246;28;20049;-75
2022/06/05 12:31:37;;;;;;;0.00;0.00;;;21.70;90.70;;;;;;4157661;28;20046;-73
2022/06/05 12:34:18;;;;;;;0.00;0.00;;;21.90;90.80;;;;;;4184848;28;20065;-74
2022/06/05 12:36:48;;;;;;;;;;;21.90;90.60;;;;;;4168426;28;20066;-76
2022/06/05 12:39:22;;;;;;;0.00;0.00;;;21.80;90.40;;;;;;4182326;28;19932;-75
2022/06/05 12:42:10;;;;;;;0.00;0.00;;;21.60;90.80;;;;;;4168864;28;20088;-74
2022/06/05 12:44:46;;;;;;;0.00;0.00;;;21.60;91.10;;;;;;4168075;28;20519;-74
2022/06/05 12:47:23;;;;;;;0.00;0.00;;;21.60;91.50;;;;;;4162418;28;20057;-72
2022/06/05 12:49:58;;;;;;;0.00;0.00;;;21.70;91.50;;;;;;4184696;28;20525;-73
2022/06/05 12:52:47;;;;;;;0.00;0.00;;;21.80;91.10;;;;;;4185297;28;20056;-73
2022/06/05 12:55:25;;;;;;;0.00;0.00;;;21.70;91.30;;;;;;4172469;28;20060;-74
2022/06/05 12:58:07;;;;;;;0.00;0.00;;;21.60;91.30;;;;;;4167367;28;20049;-73
2022/06/05 13:00:40;;;;;;;0.00;0.00;;;21.50;91.20;;;;;;4191664;28;20040;-74
2022/06/05 13:03:24;;;;;;;0.00;0.00;;;21.00;91.70;;;;;;4185034;28;20048;-72
2022/06/05 13:06:04;;;;;;;0.00;0.00;;;20.80;92.10;;;;;;4184746;28;20045;-73
2022/06/05 13:08:41;;;;;;;0.00;0.00;;;20.80;91.90;;;;;;4168382;28;20046;-73
2022/06/05 13:11:20;;;;;;;0.00;0.00;;;20.70;91.60;;;;;;4167315;28;20475;-73
2022/06/05 13:13:55;;;;;;;0.00;0.00;;;20.50;92.00;;;;;;4165402;28;20111;-74
2022/06/05 13:16:32;;;;;;;0.00;0.00;;;20.30;92.50;;;;;;4195987;28;20048;-73
2022/06/05 13:19:08;;;;;;;0.00;0.00;;;20.10;93.10;;;;;;4172389;28;20057;-73
2022/06/05 13:21:50;;;;;;;0.00;0.00;;;20.10;93.50;;;;;;4166004;28;20053;-74
2022/06/05 13:24:27;;;;;;;0.00;0.00;;;20.10;93.90;;;;;;4175999;28;20037;-75
2022/06/05 13:27:28;;;;;;;0.00;0.00;;;20.00;94.10;;;;;;4170801;28;20048;-73
2022/06/05 13:29:57;;;;;;;0.00;0.00;;;19.90;94.00;;;;;;4185116;28;20096;-73
2022/06/05 13:32:49;;;;;;;0.00;0.00;;;19.90;94.10;;;;;;4171902;28;20100;-75